sensor_id;sensor_type;location;lat;lon;timestamp;P1;durP1;ratioP1;P2;durP2;ratioP2
33716;SDS011;20046;50.746;7.072;2024-02-21T00:02:07;21.95;;;7.30;;
33716;SDS011;20046;50.746;7.072;2024-02-21T00:04:33;22.67;;;6.97;;
33716;SDS011;20046;50.746;7.072;2024-02-21T00:06:58;16.48;;;6.07;;
33716;SDS011;20046;50.746;7.072;2024-02-21T00:09:24;18.23;;;6.28;;
33716;SDS011;20046;50.746;7.072;2024-02-21T00:11:49;19.67;;;7.00;;
33716;SDS011;20046;50.746;7.072;2024-02-21T00:14:15;19.23;;;6.93;;
33716;SDS011;20046;50.746;7.072;2024-02-21T00:16:41;17.95;;;6.28;;
33716;SDS011;20046;50.746;7.072;2024-02-21T00:19:07;23.02;;;7.45;;
33716;SDS011;20046;50.746;7.072;2024-02-21T00:21:32;20.27;;;6.63;;
33716;SDS011;20046;50.746;7.072;2024-02-21T00:23:58;29.67;;;7.18;;
33716;SDS011;20046;50.746;7.072;2024-02-21T00:26:23;21.52;;;6.57;;
33716;SDS011;20046;50.746;7.072;2024-02-21T00:28:50;20.05;;;6.72;;
33716;SDS011;20046;50.746;7.072;2024-02-21T00:31:16;21.95;;;6.88;;
33716;SDS011;20046;50.746;7.072;2024-02-21T00:33:41;18.75;;;6.65;;
33716;SDS011;20046;50.746;7.072;2024-02-21T00:36:07;17.58;;;6.50;;
33716;SDS011;20046;50.746;7.072;2024-02-21T00:38:33;24.88;;;7.05;;
33716;SDS011;20046;50.746;7.072;2024-02-21T00:40:58;28.70;;;6.60;;
33716;SDS011;20046;50.746;7.072;2024-02-21T00:43:24;22.10;;;7.18;;
33716;SDS011;20046;50.746;7.072;2024-02-21T00:45:50;17.15;;;6.88;;
33716;SDS011;20046;50.746;7.072;2024-02-21T00:48:15;19.65;;;6.40;;
33716;SDS011;20046;50.746;7.072;2024-02-21T00:50:41;18.55;;;6.35;;
33716;SDS011;20046;50.746;7.072;2024-02-21T00:53:07;18.20;;;6.45;;
33716;SDS011;20046;50.746;7.072;2024-02-21T00:55:32;23.20;;;6.25;;
33716;SDS011;20046;50.746;7.072;2024-02-21T00:57:59;18.95;;;6.10;;
33716;SDS011;20046;50.746;7.072;2024-02-21T01:00:24;22.25;;;6.25;;
33716;SDS011;20046;50.746;7.072;2024-02-21T01:02:50;17.50;;;5.75;;
33716;SDS011;20046;50.746;7.072;2024-02-21T01:05:16;21.70;;;6.68;;
33716;SDS011;20046;50.746;7.072;2024-02-21T01:07:41;16.42;;;5.55;;
33716;SDS011;20046;50.746;7.072;2024-02-21T01:10:07;16.00;;;5.72;;
33716;SDS011;20046;50.746;7.072;2024-02-21T01:12:33;17.05;;;6.07;;
33716;SDS011;20046;50.746;7.072;2024-02-21T01:14:58;19.83;;;5.95;;
33716;SDS011;20046;50.746;7.072;2024-02-21T01:17:24;15.80;;;6.07;;
33716;SDS011;20046;50.746;7.072;2024-02-21T01:19:50;23.25;;;5.82;;
33716;SDS011;20046;50.746;7.072;2024-02-21T01:22:15;20.90;;;6.10;;
33716;SDS011;20046;50.746;7.072;2024-02-21T01:24:41;24.55;;;6.07;;
33716;SDS011;20046;50.746;7.072;2024-02-21T01:27:07;17.55;;;5.65;;
33716;SDS011;20046;50.746;7.072;2024-02-21T01:29:32;17.40;;;6.15;;
33716;SDS011;20046;50.746;7.072;2024-02-21T01:31:58;18.60;;;6.25;;
33716;SDS011;20046;50.746;7.072;2024-02-21T01:34:24;20.67;;;6.68;;
33716;SDS011;20046;50.746;7.072;2024-02-21T01:36:49;21.15;;;5.55;;
33716;SDS011;20046;50.746;7.072;2024-02-21T01:39:15;19.80;;;6.00;;
33716;SDS011;20046;50.746;7.072;2024-02-21T01:41:41;17.52;;;5.63;;
33716;SDS011;20046;50.746;7.072;2024-02-21T01:44:06;19.15;;;5.53;;
33716;SDS011;20046;50.746;7.072;2024-02-21T01:46:32;14.73;;;5.63;;
33716;SDS011;20046;50.746;7.072;2024-02-21T01:48:58;17.65;;;6.75;;
33716;SDS011;20046;50.746;7.072;2024-02-21T01:51:25;20.98;;;6.05;;
33716;SDS011;20046;50.746;7.072;2024-02-21T01:53:50;19.92;;;5.50;;
33716;SDS011;20046;50.746;7.072;2024-02-21T01:56:18;23.17;;;5.95;;
33716;SDS011;20046;50.746;7.072;2024-02-21T01:58:44;20.85;;;6.25;;
33716;SDS011;20046;50.746;7.072;2024-02-21T02:01:12;28.85;;;7.38;;
33716;SDS011;20046;50.746;7.072;2024-02-21T02:03:38;19.88;;;6.75;;
33716;SDS011;20046;50.746;7.072;2024-02-21T02:06:07;15.88;;;5.72;;
33716;SDS011;20046;50.746;7.072;2024-02-21T02:08:33;20.77;;;5.72;;
33716;SDS011;20046;50.746;7.072;2024-02-21T02:10:59;18.42;;;6.00;;
33716;SDS011;20046;50.746;7.072;2024-02-21T02:13:24;18.48;;;5.65;;
33716;SDS011;20046;50.746;7.072;2024-02-21T02:15:50;15.30;;;4.75;;
33716;SDS011;20046;50.746;7.072;2024-02-21T02:18:16;22.13;;;6.28;;
33716;SDS011;20046;50.746;7.072;2024-02-21T02:20:44;17.05;;;4.80;;
33716;SDS011;20046;50.746;7.072;2024-02-21T02:25:49;18.00;;;4.90;;
33716;SDS011;20046;50.746;7.072;2024-02-21T02:28:18;16.85;;;4.50;;
33716;SDS011;20046;50.746;7.072;2024-02-21T02:30:44;12.82;;;4.95;;
33716;SDS011;20046;50.746;7.072;2024-02-21T02:33:10;15.75;;;4.32;;
33716;SDS011;20046;50.746;7.072;2024-02-21T02:35:36;16.05;;;4.72;;
33716;SDS011;20046;50.746;7.072;2024-02-21T02:38:02;15.48;;;4.95;;
33716;SDS011;20046;50.746;7.072;2024-02-21T02:40:28;16.58;;;4.50;;
33716;SDS011;20046;50.746;7.072;2024-02-21T02:42:54;18.88;;;6.10;;
33716;SDS011;20046;50.746;7.072;2024-02-21T02:45:20;13.48;;;4.90;;
33716;SDS011;20046;50.746;7.072;2024-02-21T02:47:51;18.35;;;4.47;;
33716;SDS011;20046;50.746;7.072;2024-02-21T02:50:21;17.13;;;5.00;;
33716;SDS011;20046;50.746;7.072;2024-02-21T02:52:48;18.58;;;6.20;;
33716;SDS011;20046;50.746;7.072;2024-02-21T02:55:13;17.38;;;5.20;;
33716;SDS011;20046;50.746;7.072;2024-02-21T02:57:39;20.27;;;5.90;;
33716;SDS011;20046;50.746;7.072;2024-02-21T03:00:07;15.35;;;5.43;;
33716;SDS011;20046;50.746;7.072;2024-02-21T03:02:34;14.15;;;5.35;;
33716;SDS011;20046;50.746;7.072;2024-02-21T03:05:00;16.50;;;4.93;;
33716;SDS011;20046;50.746;7.072;2024-02-21T03:07:26;20.52;;;5.53;;
33716;SDS011;20046;50.746;7.072;2024-02-21T03:09:51;18.38;;;5.05;;
33716;SDS011;20046;50.746;7.072;2024-02-21T03:12:18;15.02;;;5.20;;
33716;SDS011;20046;50.746;7.072;2024-02-21T03:14:49;18.10;;;5.70;;
33716;SDS011;20046;50.746;7.072;2024-02-21T03:17:15;14.30;;;4.95;;
33716;SDS011;20046;50.746;7.072;2024-02-21T03:19:41;16.98;;;5.03;;
33716;SDS011;20046;50.746;7.072;2024-02-21T03:22:07;15.63;;;5.45;;
33716;SDS011;20046;50.746;7.072;2024-02-21T03:24:32;23.90;;;5.38;;
33716;SDS011;20046;50.746;7.072;2024-02-21T03:26:58;13.18;;;5.10;;
33716;SDS011;20046;50.746;7.072;2024-02-21T03:29:25;17.25;;;5.90;;
33716;SDS011;20046;50.746;7.072;2024-02-21T03:31:50;17.45;;;5.18;;
33716;SDS011;20046;50.746;7.072;2024-02-21T03:34:16;17.10;;;5.72;;
33716;SDS011;20046;50.746;7.072;2024-02-21T03:36:41;20.73;;;6.40;;
33716;SDS011;20046;50.746;7.072;2024-02-21T03:39:07;20.85;;;5.25;;
33716;SDS011;20046;50.746;7.072;2024-02-21T03:41:34;21.15;;;6.05;;
33716;SDS011;20046;50.746;7.072;2024-02-21T03:44:00;16.83;;;5.25;;
33716;SDS011;20046;50.746;7.072;2024-02-21T03:46:25;15.48;;;6.10;;
33716;SDS011;20046;50.746;7.072;2024-02-21T03:48:51;16.40;;;5.63;;
33716;SDS011;20046;50.746;7.072;2024-02-21T03:51:17;13.30;;;4.68;;
33716;SDS011;20046;50.746;7.072;2024-02-21T03:53:43;15.50;;;5.07;;
33716;SDS011;20046;50.746;7.072;2024-02-21T03:56:08;24.98;;;5.60;;
33716;SDS011;20046;50.746;7.072;2024-02-21T03:58:34;20.20;;;5.63;;
33716;SDS011;20046;50.746;7.072;2024-02-21T04:01:00;14.27;;;5.18;;
33716;SDS011;20046;50.746;7.072;2024-02-21T04:03:26;13.55;;;5.20;;
33716;SDS011;20046;50.746;7.072;2024-02-21T04:05:52;20.08;;;4.75;;
33716;SDS011;20046;50.746;7.072;2024-02-21T04:08:18;26.25;;;5.55;;
33716;SDS011;20046;50.746;7.072;2024-02-21T04:10:43;21.42;;;5.50;;
33716;SDS011;20046;50.746;7.072;2024-02-21T04:13:09;16.60;;;4.95;;
33716;SDS011;20046;50.746;7.072;2024-02-21T04:15:34;26.23;;;6.35;;
33716;SDS011;20046;50.746;7.072;2024-02-21T04:18:00;17.80;;;5.55;;
33716;SDS011;20046;50.746;7.072;2024-02-21T04:20:26;18.75;;;5.32;;
33716;SDS011;20046;50.746;7.072;2024-02-21T04:22:52;19.38;;;5.72;;
33716;SDS011;20046;50.746;7.072;2024-02-21T04:25:17;22.08;;;5.97;;
33716;SDS011;20046;50.746;7.072;2024-02-21T04:27:44;14.30;;;5.35;;
33716;SDS011;20046;50.746;7.072;2024-02-21T04:30:09;17.73;;;5.25;;
33716;SDS011;20046;50.746;7.072;2024-02-21T04:32:35;16.65;;;4.80;;
33716;SDS011;20046;50.746;7.072;2024-02-21T04:35:01;17.50;;;5.30;;
33716;SDS011;20046;50.746;7.072;2024-02-21T04:37:26;22.98;;;5.65;;
33716;SDS011;20046;50.746;7.072;2024-02-21T04:39:52;16.92;;;4.88;;
33716;SDS011;20046;50.746;7.072;2024-02-21T04:42:18;16.25;;;5.68;;
33716;SDS011;20046;50.746;7.072;2024-02-21T04:44:43;22.67;;;5.50;;
33716;SDS011;20046;50.746;7.072;2024-02-21T04:47:09;20.50;;;5.25;;
33716;SDS011;20046;50.746;7.072;2024-02-21T04:49:34;14.57;;;5.35;;
33716;SDS011;20046;50.746;7.072;2024-02-21T04:52:00;16.52;;;5.65;;
33716;SDS011;20046;50.746;7.072;2024-02-21T04:54:26;17.23;;;4.82;;
33716;SDS011;20046;50.746;7.072;2024-02-21T04:56:52;14.02;;;5.07;;
33716;SDS011;20046;50.746;7.072;2024-02-21T04:59:17;16.60;;;4.90;;
33716;SDS011;20046;50.746;7.072;2024-02-21T05:01:43;21.15;;;5.28;;
33716;SDS011;20046;50.746;7.072;2024-02-21T05:04:09;22.17;;;5.45;;
33716;SDS011;20046;50.746;7.072;2024-02-21T05:06:41;10.43;;;4.93;;
33716;SDS011;20046;50.746;7.072;2024-02-21T05:09:07;19.73;;;4.68;;
33716;SDS011;20046;50.746;7.072;2024-02-21T05:11:33;10.80;;;4.22;;
33716;SDS011;20046;50.746;7.072;2024-02-21T05:13:59;13.07;;;4.13;;
33716;SDS011;20046;50.746;7.072;2024-02-21T05:16:25;15.13;;;4.43;;
33716;SDS011;20046;50.746;7.072;2024-02-21T05:18:51;15.02;;;4.68;;
33716;SDS011;20046;50.746;7.072;2024-02-21T05:21:16;13.52;;;4.18;;
33716;SDS011;20046;50.746;7.072;2024-02-21T05:23:42;20.25;;;4.65;;
33716;SDS011;20046;50.746;7.072;2024-02-21T05:26:08;16.23;;;4.60;;
33716;SDS011;20046;50.746;7.072;2024-02-21T05:28:34;16.38;;;4.70;;
33716;SDS011;20046;50.746;7.072;2024-02-21T05:31:00;10.43;;;4.18;;
33716;SDS011;20046;50.746;7.072;2024-02-21T05:33:25;18.80;;;5.40;;
33716;SDS011;20046;50.746;7.072;2024-02-21T05:35:51;19.65;;;4.45;;
33716;SDS011;20046;50.746;7.072;2024-02-21T05:38:17;16.40;;;4.07;;
33716;SDS011;20046;50.746;7.072;2024-02-21T05:40:44;18.15;;;4.88;;
33716;SDS011;20046;50.746;7.072;2024-02-21T05:43:10;13.90;;;4.03;;
33716;SDS011;20046;50.746;7.072;2024-02-21T05:45:36;13.40;;;4.20;;
33716;SDS011;20046;50.746;7.072;2024-02-21T05:48:03;14.15;;;4.65;;
33716;SDS011;20046;50.746;7.072;2024-02-21T05:50:29;19.15;;;4.65;;
33716;SDS011;20046;50.746;7.072;2024-02-21T05:52:54;14.38;;;4.85;;
33716;SDS011;20046;50.746;7.072;2024-02-21T05:55:23;16.25;;;4.80;;
33716;SDS011;20046;50.746;7.072;2024-02-21T05:57:48;16.58;;;4.60;;
33716;SDS011;20046;50.746;7.072;2024-02-21T06:00:14;13.85;;;4.05;;
33716;SDS011;20046;50.746;7.072;2024-02-21T06:02:40;19.88;;;4.75;;
33716;SDS011;20046;50.746;7.072;2024-02-21T06:05:06;16.73;;;4.45;;
33716;SDS011;20046;50.746;7.072;2024-02-21T06:07:33;18.75;;;5.05;;
33716;SDS011;20046;50.746;7.072;2024-02-21T06:09:59;19.58;;;4.07;;
33716;SDS011;20046;50.746;7.072;2024-02-21T06:12:26;17.40;;;4.43;;
33716;SDS011;20046;50.746;7.072;2024-02-21T06:14:52;15.73;;;4.40;;
33716;SDS011;20046;50.746;7.072;2024-02-21T06:17:17;17.48;;;4.57;;
33716;SDS011;20046;50.746;7.072;2024-02-21T06:19:43;18.23;;;4.53;;
33716;SDS011;20046;50.746;7.072;2024-02-21T06:22:09;15.43;;;5.15;;
33716;SDS011;20046;50.746;7.072;2024-02-21T06:24:35;23.63;;;4.70;;
33716;SDS011;20046;50.746;7.072;2024-02-21T06:27:02;14.07;;;3.97;;
33716;SDS011;20046;50.746;7.072;2024-02-21T06:29:33;15.18;;;4.03;;
33716;SDS011;20046;50.746;7.072;2024-02-21T06:31:59;15.15;;;3.80;;
33716;SDS011;20046;50.746;7.072;2024-02-21T06:34:25;15.27;;;4.28;;
33716;SDS011;20046;50.746;7.072;2024-02-21T06:36:51;9.82;;;3.60;;
33716;SDS011;20046;50.746;7.072;2024-02-21T06:39:16;16.90;;;5.00;;
33716;SDS011;20046;50.746;7.072;2024-02-21T06:41:42;24.33;;;4.38;;
33716;SDS011;20046;50.746;7.072;2024-02-21T06:44:08;19.50;;;4.03;;
33716;SDS011;20046;50.746;7.072;2024-02-21T06:46:34;19.00;;;4.85;;
33716;SDS011;20046;50.746;7.072;2024-02-21T06:49:00;22.92;;;5.20;;
33716;SDS011;20046;50.746;7.072;2024-02-21T06:51:27;13.27;;;4.90;;
33716;SDS011;20046;50.746;7.072;2024-02-21T06:53:53;16.10;;;4.53;;
33716;SDS011;20046;50.746;7.072;2024-02-21T06:56:19;16.98;;;4.88;;
33716;SDS011;20046;50.746;7.072;2024-02-21T06:58:45;18.88;;;4.95;;
33716;SDS011;20046;50.746;7.072;2024-02-21T07:01:10;15.60;;;4.43;;
33716;SDS011;20046;50.746;7.072;2024-02-21T07:03:36;16.98;;;4.43;;
33716;SDS011;20046;50.746;7.072;2024-02-21T07:06:02;15.70;;;4.93;;
33716;SDS011;20046;50.746;7.072;2024-02-21T07:08:29;18.88;;;4.50;;
33716;SDS011;20046;50.746;7.072;2024-02-21T07:10:54;17.80;;;4.47;;
33716;SDS011;20046;50.746;7.072;2024-02-21T07:13:20;21.90;;;5.78;;
33716;SDS011;20046;50.746;7.072;2024-02-21T07:15:47;17.77;;;5.43;;
33716;SDS011;20046;50.746;7.072;2024-02-21T07:18:13;15.55;;;5.18;;
33716;SDS011;20046;50.746;7.072;2024-02-21T07:20:39;25.05;;;6.03;;
33716;SDS011;20046;50.746;7.072;2024-02-21T07:23:06;18.42;;;5.82;;
33716;SDS011;20046;50.746;7.072;2024-02-21T07:25:33;16.02;;;5.43;;
33716;SDS011;20046;50.746;7.072;2024-02-21T07:27:59;18.73;;;5.15;;
33716;SDS011;20046;50.746;7.072;2024-02-21T07:30:24;26.17;;;5.47;;
33716;SDS011;20046;50.746;7.072;2024-02-21T07:32:50;20.83;;;5.40;;
33716;SDS011;20046;50.746;7.072;2024-02-21T07:35:17;20.67;;;5.85;;
33716;SDS011;20046;50.746;7.072;2024-02-21T07:37:42;16.10;;;5.53;;
33716;SDS011;20046;50.746;7.072;2024-02-21T07:40:15;19.50;;;6.28;;
33716;SDS011;20046;50.746;7.072;2024-02-21T07:42:41;16.33;;;5.43;;
33716;SDS011;20046;50.746;7.072;2024-02-21T07:45:08;20.35;;;6.32;;
33716;SDS011;20046;50.746;7.072;2024-02-21T07:47:34;18.05;;;5.85;;
33716;SDS011;20046;50.746;7.072;2024-02-21T07:50:00;18.30;;;5.80;;
33716;SDS011;20046;50.746;7.072;2024-02-21T07:52:26;23.95;;;6.35;;
33716;SDS011;20046;50.746;7.072;2024-02-21T07:54:51;19.73;;;6.18;;
33716;SDS011;20046;50.746;7.072;2024-02-21T07:57:17;17.27;;;5.93;;
33716;SDS011;20046;50.746;7.072;2024-02-21T07:59:43;15.07;;;6.00;;
33716;SDS011;20046;50.746;7.072;2024-02-21T08:02:08;17.60;;;5.55;;
33716;SDS011;20046;50.746;7.072;2024-02-21T08:04:34;22.73;;;6.05;;
33716;SDS011;20046;50.746;7.072;2024-02-21T08:07:00;20.27;;;6.28;;
33716;SDS011;20046;50.746;7.072;2024-02-21T08:09:29;19.42;;;6.55;;
33716;SDS011;20046;50.746;7.072;2024-02-21T08:11:55;21.55;;;5.82;;
33716;SDS011;20046;50.746;7.072;2024-02-21T08:14:21;15.90;;;5.57;;
33716;SDS011;20046;50.746;7.072;2024-02-21T08:16:47;16.67;;;5.63;;
33716;SDS011;20046;50.746;7.072;2024-02-21T08:19:13;18.52;;;5.22;;
33716;SDS011;20046;50.746;7.072;2024-02-21T08:21:38;14.45;;;5.45;;
33716;SDS011;20046;50.746;7.072;2024-02-21T08:24:04;15.55;;;5.90;;
33716;SDS011;20046;50.746;7.072;2024-02-21T08:26:30;18.60;;;5.63;;
33716;SDS011;20046;50.746;7.072;2024-02-21T08:28:59;22.08;;;5.72;;
33716;SDS011;20046;50.746;7.072;2024-02-21T08:31:25;14.98;;;4.63;;
33716;SDS011;20046;50.746;7.072;2024-02-21T08:33:59;22.85;;;5.57;;
33716;SDS011;20046;50.746;7.072;2024-02-21T08:36:28;21.13;;;6.15;;
33716;SDS011;20046;50.746;7.072;2024-02-21T08:38:58;15.52;;;5.20;;
33716;SDS011;20046;50.746;7.072;2024-02-21T08:41:24;13.23;;;5.00;;
33716;SDS011;20046;50.746;7.072;2024-02-21T08:43:53;19.20;;;5.15;;
33716;SDS011;20046;50.746;7.072;2024-02-21T08:46:22;12.95;;;4.60;;
33716;SDS011;20046;50.746;7.072;2024-02-21T08:48:51;13.52;;;5.05;;
33716;SDS011;20046;50.746;7.072;2024-02-21T08:51:17;18.33;;;5.03;;
33716;SDS011;20046;50.746;7.072;2024-02-21T08:53:44;20.58;;;4.47;;
33716;SDS011;20046;50.746;7.072;2024-02-21T08:56:10;19.38;;;5.13;;
33716;SDS011;20046;50.746;7.072;2024-02-21T08:58:36;15.80;;;4.65;;
33716;SDS011;20046;50.746;7.072;2024-02-21T09:01:02;17.65;;;4.85;;
33716;SDS011;20046;50.746;7.072;2024-02-21T09:03:31;17.85;;;4.72;;
33716;SDS011;20046;50.746;7.072;2024-02-21T09:05:57;16.63;;;5.75;;
33716;SDS011;20046;50.746;7.072;2024-02-21T09:08:23;20.00;;;5.05;;
33716;SDS011;20046;50.746;7.072;2024-02-21T09:10:49;13.57;;;4.30;;
33716;SDS011;20046;50.746;7.072;2024-02-21T09:13:15;19.02;;;4.85;;
33716;SDS011;20046;50.746;7.072;2024-02-21T09:15:40;18.50;;;4.60;;
33716;SDS011;20046;50.746;7.072;2024-02-21T09:18:07;17.58;;;4.82;;
33716;SDS011;20046;50.746;7.072;2024-02-21T09:20:32;14.40;;;4.65;;
33716;SDS011;20046;50.746;7.072;2024-02-21T09:22:58;16.70;;;4.85;;
33716;SDS011;20046;50.746;7.072;2024-02-21T09:25:24;14.50;;;4.32;;
33716;SDS011;20046;50.746;7.072;2024-02-21T09:27:49;16.50;;;4.88;;
33716;SDS011;20046;50.746;7.072;2024-02-21T09:30:17;12.63;;;4.15;;
33716;SDS011;20046;50.746;7.072;2024-02-21T09:32:45;21.65;;;5.22;;
33716;SDS011;20046;50.746;7.072;2024-02-21T09:35:10;17.45;;;4.88;;
33716;SDS011;20046;50.746;7.072;2024-02-21T09:37:37;25.70;;;6.20;;
33716;SDS011;20046;50.746;7.072;2024-02-21T09:40:03;16.52;;;5.57;;
33716;SDS011;20046;50.746;7.072;2024-02-21T09:42:37;17.95;;;5.50;;
33716;SDS011;20046;50.746;7.072;2024-02-21T09:50:40;15.38;;;3.83;;
33716;SDS011;20046;50.746;7.072;2024-02-21T09:53:08;16.52;;;3.85;;
33716;SDS011;20046;50.746;7.072;2024-02-21T09:55:36;12.65;;;4.05;;
33716;SDS011;20046;50.746;7.072;2024-02-21T09:58:05;12.85;;;4.07;;
33716;SDS011;20046;50.746;7.072;2024-02-21T10:00:30;16.90;;;4.78;;
33716;SDS011;20046;50.746;7.072;2024-02-21T10:02:56;24.33;;;4.45;;
33716;SDS011;20046;50.746;7.072;2024-02-21T10:05:23;18.80;;;4.35;;
33716;SDS011;20046;50.746;7.072;2024-02-21T10:07:50;11.25;;;3.85;;
33716;SDS011;20046;50.746;7.072;2024-02-21T10:10:16;10.18;;;3.60;;
33716;SDS011;20046;50.746;7.072;2024-02-21T10:12:49;13.05;;;3.85;;
33716;SDS011;20046;50.746;7.072;2024-02-21T10:15:19;12.45;;;3.70;;
33716;SDS011;20046;50.746;7.072;2024-02-21T10:17:46;20.48;;;3.90;;
33716;SDS011;20046;50.746;7.072;2024-02-21T10:20:12;14.45;;;3.40;;
33716;SDS011;20046;50.746;7.072;2024-02-21T10:22:39;14.27;;;4.03;;
33716;SDS011;20046;50.746;7.072;2024-02-21T10:27:34;17.95;;;3.85;;
33716;SDS011;20046;50.746;7.072;2024-02-21T10:30:00;15.68;;;4.05;;
33716;SDS011;20046;50.746;7.072;2024-02-21T10:32:25;15.35;;;3.72;;
33716;SDS011;20046;50.746;7.072;2024-02-21T10:35:00;19.55;;;4.50;;
33716;SDS011;20046;50.746;7.072;2024-02-21T10:37:28;9.25;;;3.60;;
33716;SDS011;20046;50.746;7.072;2024-02-21T10:39:54;13.52;;;3.55;;
33716;SDS011;20046;50.746;7.072;2024-02-21T10:42:21;9.60;;;3.63;;
33716;SDS011;20046;50.746;7.072;2024-02-21T10:44:48;14.98;;;3.95;;
33716;SDS011;20046;50.746;7.072;2024-02-21T10:47:17;16.02;;;4.38;;
33716;SDS011;20046;50.746;7.072;2024-02-21T10:49:46;10.05;;;3.05;;
33716;SDS011;20046;50.746;7.072;2024-02-21T10:55:29;12.63;;;3.15;;
33716;SDS011;20046;50.746;7.072;2024-02-21T10:58:09;13.65;;;3.28;;
33716;SDS011;20046;50.746;7.072;2024-02-21T11:00:36;8.48;;;3.08;;
33716;SDS011;20046;50.746;7.072;2024-02-21T11:03:02;11.23;;;3.63;;
33716;SDS011;20046;50.746;7.072;2024-02-21T11:05:29;16.70;;;3.70;;
33716;SDS011;20046;50.746;7.072;2024-02-21T11:07:55;14.50;;;3.30;;
33716;SDS011;20046;50.746;7.072;2024-02-21T11:10:23;10.35;;;3.20;;
33716;SDS011;20046;50.746;7.072;2024-02-21T11:12:53;10.95;;;3.03;;
33716;SDS011;20046;50.746;7.072;2024-02-21T11:15:36;16.25;;;3.13;;
33716;SDS011;20046;50.746;7.072;2024-02-21T11:20:39;15.20;;;3.10;;
33716;SDS011;20046;50.746;7.072;2024-02-21T11:23:05;10.93;;;3.13;;
33716;SDS011;20046;50.746;7.072;2024-02-21T11:25:30;10.48;;;2.95;;
33716;SDS011;20046;50.746;7.072;2024-02-21T11:35:44;12.40;;;3.58;;
33716;SDS011;20046;50.746;7.072;2024-02-21T11:38:11;12.65;;;3.47;;
33716;SDS011;20046;50.746;7.072;2024-02-21T11:40:41;8.25;;;3.05;;
33716;SDS011;20046;50.746;7.072;2024-02-21T11:43:09;15.13;;;3.03;;
33716;SDS011;20046;50.746;7.072;2024-02-21T11:45:35;9.38;;;3.08;;
33716;SDS011;20046;50.746;7.072;2024-02-21T11:48:01;11.60;;;2.63;;
33716;SDS011;20046;50.746;7.072;2024-02-21T11:50:30;11.02;;;3.22;;
33716;SDS011;20046;50.746;7.072;2024-02-21T11:52:56;13.40;;;3.67;;
33716;SDS011;20046;50.746;7.072;2024-02-21T11:55:22;16.55;;;3.72;;
33716;SDS011;20046;50.746;7.072;2024-02-21T11:57:48;14.63;;;3.10;;
33716;SDS011;20046;50.746;7.072;2024-02-21T12:00:14;10.55;;;3.50;;
33716;SDS011;20046;50.746;7.072;2024-02-21T12:02:41;10.85;;;2.88;;
33716;SDS011;20046;50.746;7.072;2024-02-21T12:05:07;13.45;;;2.95;;
33716;SDS011;20046;50.746;7.072;2024-02-21T12:07:35;10.23;;;3.30;;
33716;SDS011;20046;50.746;7.072;2024-02-21T12:10:02;10.25;;;3.50;;
33716;SDS011;20046;50.746;7.072;2024-02-21T12:12:28;12.27;;;3.70;;
33716;SDS011;20046;50.746;7.072;2024-02-21T12:14:56;14.50;;;3.63;;
33716;SDS011;20046;50.746;7.072;2024-02-21T12:17:25;14.52;;;4.03;;
33716;SDS011;20046;50.746;7.072;2024-02-21T12:19:50;10.80;;;3.30;;
33716;SDS011;20046;50.746;7.072;2024-02-21T12:22:17;12.60;;;3.17;;
33716;SDS011;20046;50.746;7.072;2024-02-21T12:24:43;11.40;;;3.55;;
33716;SDS011;20046;50.746;7.072;2024-02-21T12:27:12;10.38;;;3.20;;
33716;SDS011;20046;50.746;7.072;2024-02-21T12:29:38;12.55;;;3.00;;
33716;SDS011;20046;50.746;7.072;2024-02-21T12:32:03;13.98;;;3.20;;
33716;SDS011;20046;50.746;7.072;2024-02-21T12:34:29;13.85;;;3.70;;
33716;SDS011;20046;50.746;7.072;2024-02-21T12:36:57;7.70;;;3.33;;
33716;SDS011;20046;50.746;7.072;2024-02-21T12:39:23;14.43;;;3.67;;
33716;SDS011;20046;50.746;7.072;2024-02-21T12:41:49;15.70;;;3.40;;
33716;SDS011;20046;50.746;7.072;2024-02-21T12:44:15;9.48;;;3.22;;
33716;SDS011;20046;50.746;7.072;2024-02-21T12:46:42;10.57;;;4.03;;
33716;SDS011;20046;50.746;7.072;2024-02-21T12:49:07;9.95;;;2.80;;
33716;SDS011;20046;50.746;7.072;2024-02-21T12:51:33;10.80;;;3.80;;
33716;SDS011;20046;50.746;7.072;2024-02-21T12:53:59;16.40;;;3.65;;
33716;SDS011;20046;50.746;7.072;2024-02-21T12:56:25;15.88;;;4.60;;
33716;SDS011;20046;50.746;7.072;2024-02-21T12:58:52;11.90;;;3.25;;
33716;SDS011;20046;50.746;7.072;2024-02-21T13:01:18;13.50;;;3.50;;
33716;SDS011;20046;50.746;7.072;2024-02-21T13:03:44;9.43;;;3.22;;
33716;SDS011;20046;50.746;7.072;2024-02-21T13:06:11;11.07;;;3.38;;
33716;SDS011;20046;50.746;7.072;2024-02-21T13:08:37;12.45;;;3.80;;
33716;SDS011;20046;50.746;7.072;2024-02-21T13:11:03;11.75;;;3.70;;
33716;SDS011;20046;50.746;7.072;2024-02-21T13:13:29;18.95;;;4.25;;
33716;SDS011;20046;50.746;7.072;2024-02-21T13:15:56;11.82;;;3.72;;
33716;SDS011;20046;50.746;7.072;2024-02-21T13:18:22;17.38;;;4.38;;
33716;SDS011;20046;50.746;7.072;2024-02-21T13:20:48;10.20;;;3.70;;
33716;SDS011;20046;50.746;7.072;2024-02-21T13:23:13;11.82;;;3.40;;
33716;SDS011;20046;50.746;7.072;2024-02-21T13:25:39;12.10;;;3.80;;
33716;SDS011;20046;50.746;7.072;2024-02-21T13:28:04;8.60;;;2.80;;
33716;SDS011;20046;50.746;7.072;2024-02-21T13:30:30;10.77;;;2.83;;
33716;SDS011;20046;50.746;7.072;2024-02-21T13:32:56;16.85;;;3.92;;
33716;SDS011;20046;50.746;7.072;2024-02-21T13:35:21;12.05;;;3.38;;
33716;SDS011;20046;50.746;7.072;2024-02-21T13:37:47;8.25;;;2.95;;
33716;SDS011;20046;50.746;7.072;2024-02-21T13:40:14;14.68;;;3.42;;
33716;SDS011;20046;50.746;7.072;2024-02-21T13:42:40;12.63;;;3.50;;
33716;SDS011;20046;50.746;7.072;2024-02-21T13:45:06;15.70;;;3.22;;
33716;SDS011;20046;50.746;7.072;2024-02-21T13:47:33;12.40;;;2.60;;
33716;SDS011;20046;50.746;7.072;2024-02-21T13:49:59;15.98;;;3.05;;
33716;SDS011;20046;50.746;7.072;2024-02-21T13:52:25;12.13;;;3.40;;
33716;SDS011;20046;50.746;7.072;2024-02-21T13:54:51;13.68;;;3.33;;
33716;SDS011;20046;50.746;7.072;2024-02-21T13:57:17;6.60;;;2.80;;
33716;SDS011;20046;50.746;7.072;2024-02-21T13:59:43;8.70;;;2.85;;
33716;SDS011;20046;50.746;7.072;2024-02-21T14:02:09;12.50;;;2.95;;
33716;SDS011;20046;50.746;7.072;2024-02-21T14:04:34;15.82;;;3.65;;
33716;SDS011;20046;50.746;7.072;2024-02-21T14:07:00;11.55;;;3.13;;
33716;SDS011;20046;50.746;7.072;2024-02-21T14:09:26;10.27;;;2.83;;
33716;SDS011;20046;50.746;7.072;2024-02-21T14:11:54;8.68;;;3.00;;
33716;SDS011;20046;50.746;7.072;2024-02-21T14:14:20;5.93;;;2.35;;
33716;SDS011;20046;50.746;7.072;2024-02-21T14:16:46;13.40;;;3.60;;
33716;SDS011;20046;50.746;7.072;2024-02-21T14:19:17;12.65;;;4.15;;
33716;SDS011;20046;50.746;7.072;2024-02-21T14:21:48;10.38;;;3.25;;
33716;SDS011;20046;50.746;7.072;2024-02-21T14:24:14;13.23;;;3.45;;
33716;SDS011;20046;50.746;7.072;2024-02-21T14:26:40;16.67;;;3.75;;
33716;SDS011;20046;50.746;7.072;2024-02-21T14:29:06;11.93;;;2.67;;
33716;SDS011;20046;50.746;7.072;2024-02-21T14:31:32;11.20;;;2.75;;
33716;SDS011;20046;50.746;7.072;2024-02-21T14:33:57;8.95;;;2.63;;
33716;SDS011;20046;50.746;7.072;2024-02-21T14:36:29;9.95;;;2.55;;
33716;SDS011;20046;50.746;7.072;2024-02-21T14:38:54;10.63;;;2.55;;
33716;SDS011;20046;50.746;7.072;2024-02-21T14:41:20;10.02;;;2.28;;
33716;SDS011;20046;50.746;7.072;2024-02-21T14:43:45;10.00;;;2.50;;
33716;SDS011;20046;50.746;7.072;2024-02-21T14:46:11;11.95;;;2.40;;
33716;SDS011;20046;50.746;7.072;2024-02-21T14:48:37;9.18;;;2.47;;
33716;SDS011;20046;50.746;7.072;2024-02-21T14:51:03;10.73;;;2.90;;
33716;SDS011;20046;50.746;7.072;2024-02-21T14:53:29;6.72;;;2.22;;
33716;SDS011;20046;50.746;7.072;2024-02-21T14:55:56;7.32;;;2.63;;